Main page
METAR-TAF:

METAR-TAF

Airports :

Sukkur Airport

Sukkur, Pakistan

latitude: 27-43-19N, longitude: 068-47-31E, elevation: 60 m

Current weather observation

The report was made 1 hour and 54 minutes ago, at 04:00 UTC
Wind 6 kt from the Northwest
Temperature 31°C
Humidity 71%
Pressure 1002 hPa
Visibility: 4000 m
haze

METAR: OPSK 250400Z 31006KT 4000 HZ NSC 31/25 Q1002 NOSIG

Time: 10:54 (05:54 UTC)

Forecast

The report was made 1 hour and 54 minutes ago, at 04:00 UTC
Forecast valid from 25 at 06 UTC to 26 at 06 UTC
Wind 10 kt from the South
Visibility: 4000 m
haze

TAF: OPSK 250400Z 2506/2606 18010KT 4000 HZ NSC

Weather observations and forecasts of more than 4000 airports (METAR and TAF reports).

The available stations are represented by yellow and red dots on the map.

Hover mouse over dot to see the name of the station.

Then click to see weather observations and forecasts.

To change the map : click on the green buttons with a black cross to zoom in, on the green button with a dash to zoom out, or on the green arrows for adjacent maps.


METAR-TAF: